Marietta, North Carolina
Current Conditions -  °F | °C
As of 11:54 AM on Thursday 30 Oct 2014 (Local Time) from KLBT Reporting Station
Clear Clear  
Wind Chill: 68°   Ceiling: Unl
Heat Index: 68°   Visibility: 10mi
Dew Point: 48°   Wind: 12mph
Humidity: 49%   Direction: 20°NNE
Pressure: 30.03"   Gusts: NA
Location:  34.37°N, 79.12°W
Report Text: KLBT 301554Z AUTO 02010KT 10SM CLR 20/09 A3003 RMK AO2 SLP167 T02000089
Loading
Personal Weather Stations






























Interactive Weather Map
Tropical Storm Tracking
New forecast layout! Learn more

10-Day Weather Forecast

Advertisements
Track Severe Weather on mobile